Relevés horaires Bierset (Belgique)


Relevés horaires à Bierset - Mercredi 04 Nov. 2020
Heure UTC1 Température [°C] Vent [km/h] Hum. [%] Pres.4 [hPa] Visi. [Km] Nébu. [octa] Préc.5 [mm] Cond.
2m. Res. Ros. Dir.2 Vit. Moy. Raf.3
23:00 4.5 4.5 3.5 S 1.9 1.9 9.3 93 1038.4(0.8/3h) 10 0/8 -- --
22:00 4.3 4.3 3.6 SSE 1.9 3.7 11.1 95 1038.3(1.2/3h) 6 0/8 -- --
21:00 5.6 5.6 3.9 SE 1.9 3.7 5.6 89 1037.9(1.9/3h) 20 0/8 -- --
20:00 6.2 6.2 3.3 NNO 0.0 3.7 5.6 82 1037.4(2.0/3h) 20 0/8 -- --
19:00 7.1 7.1 3.8 NNO 1.9 1.9 1.9 79 1036.7(2.2/3h) 20 0/8 -- --
18:00 7.4 7.4 3.9 NNO 1.9 3.7 7.4 78 1035.8(1.9/3h) 30 0/8 0/12h
--
17:00 7.8 7.8 4.6 NNO 1.9 3.7 3.7 80 1035.3(1.8/3h) 30 1/8 -- --
16:00 8.0 8.0 4.5 NNO 3.7 3.7 3.7 79 1034.4(0.9/3h) 30 1/8 -- --
15:00 9.0 9.0 5.1 NNO 1.9 3.7 7.4 77 1033.8(0.4/3h) 30 2/8 -- --
14:00 9.4 9.4 5.0 NO 3.7 3.7 7.4 74 1033.3(0.0/3h) 30 2/8 -- --
13:00 9.9 9.9 5.8 SO 1.9 1.9 5.6 76 1033.3(0.5/3h) 30 2/8 -- --
12:00 9.4 9.4 4.6 O 1.9 7.4 14.8 72 1033.3(1.4/3h) 25 1/8 0/6h
--
11:00 8.5 8.5 5.2 NNO 1.9 3.7 5.6 80 1033.5(2.0/3h) 25 1/8 -- --
10:00 7.2 7.2 4.2 SO 1.9 5.6 7.4 81 1033.1(2.3/3h) 25 1/8 -- --
09:00 5.8 4.8 3.7 S 5.6 7.4 14.8 86 1032.2(2.0/3h) 25 1/8 -- --
08:00 4.0 4.0 2.6 S 3.7 7.4 14.8 91 1031.8(1.9/3h) 25 0/8 -- --
07:00 3.2 1.8 2.4 S 5.6 7.4 13.0 94 1031.1(1.7/3h) 25 0/8 -- --
06:00 3.5 2.1 2.5 S 5.6 11.1 14.8 93 1030.3(1.3/3h) 18 0/8 0/12h
--
05:00 3.4 2 2.7 SSE 5.6 7.4 14.8 95 1029.9(1.1/3h) 9 0/8 -- --
04:00 4.5 3.3 3.3 SSO 5.6 7.4 11.1 92 1029.2(0.9/3h) 11 0/8 -- --
03:00 4.6 2.8 3.4 SO 7.4 11.1 14.8 92 1028.9(1.1/3h) 30 0/8 -- --
02:00 4.7 2.5 3.6 SO 9.3 9.3 13.0 93 1028.6(1.2/3h) 30 0/8 -- --
01:00 4.6 2.3 3.4 SO 9.3 11.1 14.8 92 1028.3(1.4/3h) 30 0/8 -- --
00:00 5.4 3.3 3.7 SSO 9.3 13.0 18.5 89 1027.8(1.3/3h) 30 2/8 0/6h
0/24h
--

1 Coordinated Universal Time. Actuellement il est 01:00 locale et 23:00 UTC.

2 Le vent souffle depuis la direction indiquée vers la direction oposée.

3 Les rafales max. sont disponible 40 min après l'heure du relevé.

4 Pour les stations d'altitude (plus de 600m) le géopotentiel du niveau le plus proche de la pression obligatoire est indiqué.

5 Les stations disposant d'un diffuseur peuvent indiquer "trace". Cela signifie que des précipitations ont touchés le sol mais que la quantité est inférieure à 0.1 mm.

Récapitulatif de la journée
Température [°C] Vent [km/h] Ensoleillement4 [h] Precipitations totale5 [mm] Pression [Hpa]
Min1 Max.2 Moy.3 Max. Min Max.
3.3 10.4 6 18.5 0 h 0 min 0 1027.8 1038.4

1 Température minimale relevée entre 18:00 UTC la veille et 18:00 UTC le jour donné.

2 Température maximale relevée entre 06:00 UTC le jour donné et 06:00 UTC le lendemain.

3 Vent moyen de la journée basé sur les relevés horaires.

4 Ensoleillement en heures relevé entre 06:00 UTC la veille et 06:00 UTC le jour donné.

5 Précipitations totales tombées entre 06:00 UTC la jour donné et 06:00 UTC le lendemain.

Graphiques horaires